Time;durP1;ratioP1;P1;durP2;ratioP2;P2;SDS_P1;SDS_P2;PMS_P1;PMS_P2;Temp;Humidity;BMP_temperature;BMP_pressure;BME280_temperature;BME280_humidity;BME280_pressure;Samples;Min_cycle;Max_cycle;Signal;HPM_P1;HPM_P2
2022/04/12 00:06:54;;;;;;;0.20;0.10;;;14.70;99.90;;;;;;25294412;23;20224;-78
2022/04/12 00:27:19;;;;;;;0.20;0.00;;;14.80;99.90;;;;;;25291769;23;20184;-79
2022/04/12 00:37:24;;;;;;;0.20;0.07;;;14.80;99.90;;;;;;25294671;23;20183;-80
2022/04/12 00:47:28;;;;;;;0.20;0.07;;;14.70;99.90;;;;;;25299540;23;20207;-80
2022/04/12 00:57:34;;;;;;;0.20;0.00;;;14.70;99.90;;;;;;25301516;23;21214;-77
2022/04/12 01:07:38;;;;;;;0.20;0.10;;;14.60;99.90;;;;;;25299733;23;20281;-77
2022/04/12 01:17:44;;;;;;;0.20;0.10;;;14.60;99.90;;;;;;25300288;23;20231;-76
2022/04/12 01:27:49;;;;;;;0.20;0.00;;;14.60;99.90;;;;;;25297911;23;20300;-76
2022/04/12 01:37:53;;;;;;;0.20;0.10;;;14.50;99.90;;;;;;25298485;23;20199;-74
2022/04/12 01:47:58;;;;;;;0.20;0.10;;;14.60;99.90;;;;;;25298167;23;20199;-77
2022/04/12 01:58:03;;;;;;;0.20;0.10;;;14.50;99.90;;;;;;25297965;23;20208;-75
2022/04/12 02:08:09;;;;;;;0.23;0.23;;;14.60;99.90;;;;;;25297727;23;20207;-77
2022/04/12 02:18:13;;;;;;;0.20;0.00;;;14.70;99.90;;;;;;25297042;23;20265;-74
2022/04/12 02:28:18;;;;;;;0.20;0.00;;;14.60;99.90;;;;;;25297203;23;21185;-75
2022/04/12 02:38:22;;;;;;;0.20;0.10;;;14.50;99.90;;;;;;25295178;23;20766;-74
2022/04/12 02:48:27;;;;;;;0.20;0.10;;;14.60;99.90;;;;;;25296733;23;20216;-73
2022/04/12 02:58:31;;;;;;;0.20;0.10;;;14.60;99.90;;;;;;25294510;23;20963;-74
2022/04/12 03:08:36;;;;;;;0.20;0.10;;;14.60;99.90;;;;;;25294996;23;20303;-74
2022/04/12 03:18:40;;;;;;;0.20;0.00;;;14.60;99.90;;;;;;25294681;23;20203;-79
2022/04/12 03:28:45;;;;;;;0.20;0.00;;;14.60;99.90;;;;;;25295329;23;20273;-73
2022/04/12 03:38:49;;;;;;;0.20;0.10;;;14.60;99.90;;;;;;25292915;23;20223;-71
2022/04/12 03:48:54;;;;;;;0.20;0.10;;;14.50;99.90;;;;;;25294372;23;20208;-74
2022/04/12 03:58:58;;;;;;;0.20;0.00;;;14.50;99.90;;;;;;25292804;23;20196;-73
2022/04/12 04:09:04;;;;;;;0.20;0.00;;;14.40;99.90;;;;;;25292295;23;20239;-80
2022/04/12 04:19:09;;;;;;;0.20;0.10;;;14.40;99.90;;;;;;25290024;23;20168;-79
2022/04/12 04:29:14;;;;;;;0.20;0.10;;;14.40;99.90;;;;;;25292000;23;20199;-79
2022/04/12 04:39:18;;;;;;;0.20;0.10;;;14.40;99.90;;;;;;25291873;23;20219;-80
2022/04/12 04:49:23;;;;;;;0.20;0.10;;;14.40;99.90;;;;;;25291495;23;20215;-74
2022/04/12 04:59:28;;;;;;;0.20;0.00;;;14.30;99.90;;;;;;25290814;23;20235;-76
2022/04/12 05:09:33;;;;;;;0.20;0.00;;;14.50;99.90;;;;;;25289355;23;20243;-68
2022/04/12 05:19:39;;;;;;;0.20;0.10;;;14.50;99.90;;;;;;25291399;23;20180;-74
2022/04/12 05:29:45;;;;;;;0.20;0.10;;;14.60;99.90;;;;;;25294424;23;20204;-73
2022/04/12 05:39:49;;;;;;;0.20;0.10;;;14.70;99.90;;;;;;25297113;23;20246;-73
2022/04/12 05:49:55;;;;;;;0.20;0.00;;;14.80;99.90;;;;;;25295503;23;20285;-74
2022/04/12 05:59:58;;;;;;;0.20;0.00;;;14.80;99.90;;;;;;25292978;23;20231;-71
2022/04/12 06:10:04;;;;;;;0.20;0.00;;;14.90;99.90;;;;;;25294023;23;20196;-67
2022/04/12 06:20:10;;;;;;;0.20;0.10;;;14.90;99.90;;;;;;25293934;23;20188;-72
2022/04/12 06:30:17;;;;;;;0.20;0.10;;;15.00;99.90;;;;;;25294193;23;20222;-72
2022/04/12 06:40:21;;;;;;;0.23;0.17;;;15.00;99.90;;;;;;25289817;23;20255;-74
2022/04/12 06:50:27;;;;;;;0.20;0.10;;;14.90;99.90;;;;;;25290966;23;20203;-74
2022/04/12 07:00:31;;;;;;;0.20;0.13;;;15.00;99.90;;;;;;25286097;23;20248;-73
2022/04/12 07:10:37;;;;;;;0.93;0.93;;;15.10;99.90;;;;;;25289074;23;20239;-78
2022/04/12 07:20:41;;;;;;;0.20;0.10;;;15.00;99.90;;;;;;25290767;23;20196;-75
2022/04/12 07:30:46;;;;;;;0.20;0.10;;;14.90;99.90;;;;;;25291797;23;20259;-76
2022/04/12 07:40:57;;;;;;;0.20;0.00;;;15.00;99.90;;;;;;25288375;23;20168;-77
2022/04/12 07:51:02;;;;;;;0.20;0.10;;;15.20;99.90;;;;;;25287235;23;20262;-69
2022/04/12 08:01:06;;;;;;;0.20;0.10;;;15.20;99.90;;;;;;25284202;23;20219;-75
2022/04/12 08:11:12;;;;;;;0.20;0.10;;;15.10;99.90;;;;;;25285068;23;20204;-78
2022/04/12 08:21:30;;;;;;;0.20;0.10;;;15.20;99.90;;;;;;25261190;23;20172;-75
2022/04/12 08:31:35;;;;;;;0.20;0.10;;;15.30;99.90;;;;;;25285264;23;20188;-74
2022/04/12 08:41:41;;;;;;;0.20;0.10;;;15.20;99.90;;;;;;25286497;23;20161;-76
2022/04/12 08:51:47;;;;;;;0.20;0.10;;;15.10;99.90;;;;;;25280606;23;20286;-75
2022/04/12 09:01:51;;;;;;;0.20;0.10;;;15.20;99.90;;;;;;25277613;23;20207;-79
2022/04/12 09:12:02;;;;;;;0.20;0.10;;;15.20;99.90;;;;;;25282467;23;20203;-78
2022/04/12 09:22:11;;;;;;;0.20;0.13;;;15.10;99.90;;;;;;25283406;23;20191;-77
2022/04/12 09:32:17;;;;;;;0.20;0.00;;;15.20;99.90;;;;;;25281186;23;20223;-80
2022/04/12 09:42:38;;;;;;;0.20;0.00;;;15.10;99.90;;;;;;25278754;23;20232;-76
2022/04/12 09:52:53;;;;;;;0.20;0.10;;;15.40;99.90;;;;;;25278641;23;20215;-79
2022/04/12 10:02:58;;;;;;;0.20;0.00;;;15.40;99.90;;;;;;25280703;23;20255;-72
2022/04/12 10:13:03;;;;;;;0.20;0.10;;;15.50;99.90;;;;;;25279700;23;20252;-79
2022/04/12 10:23:08;;;;;;;0.20;0.03;;;15.20;99.90;;;;;;25279259;23;20172;-75
2022/04/12 10:33:20;;;;;;;0.20;0.07;;;15.20;99.90;;;;;;25279699;23;20230;-78
2022/04/12 10:43:29;;;;;;;0.20;0.00;;;15.30;99.90;;;;;;25279770;23;20195;-77
2022/04/12 10:53:57;;;;;;;0.20;0.10;;;15.80;99.90;;;;;;25275934;23;20264;-73
2022/04/12 11:04:03;;;;;;;0.20;0.07;;;16.30;99.90;;;;;;25267137;23;20231;-73
2022/04/12 20:16:31;;;;;;;0.20;0.00;;;15.40;99.90;;;;;;25881748;22;1837401;-77
2022/04/12 20:26:35;;;;;;;0.20;0.00;;;15.20;99.90;;;;;;25884495;23;20180;-68
2022/04/12 20:36:40;;;;;;;0.20;0.00;;;15.10;99.90;;;;;;25906732;23;20193;-69
2022/04/12 20:46:43;;;;;;;0.20;0.00;;;15.10;99.90;;;;;;25901994;23;20192;-71
2022/04/12 20:56:48;;;;;;;0.20;0.00;;;15.00;99.90;;;;;;25905419;22;20215;-72
2022/04/12 21:06:52;;;;;;;0.20;0.10;;;15.10;99.90;;;;;;25880540;23;20722;-73
2022/04/12 21:16:57;;;;;;;0.20;0.10;;;15.00;99.90;;;;;;25905936;23;20201;-73
2022/04/12 21:27:01;;;;;;;0.20;0.10;;;14.90;99.90;;;;;;25906583;23;20233;-72
2022/04/12 21:37:09;;;;;;;0.20;0.10;;;14.70;99.90;;;;;;25903936;23;20355;-72
2022/04/12 21:47:13;;;;;;;0.20;0.00;;;14.60;99.90;;;;;;25906991;23;20204;-72
2022/04/12 21:57:19;;;;;;;0.20;0.00;;;14.50;99.90;;;;;;25907031;22;20193;-71
2022/04/12 22:07:22;;;;;;;0.20;0.00;;;14.40;99.90;;;;;;25899909;23;20244;-73
2022/04/12 22:17:28;;;;;;;0.20;0.00;;;14.40;99.90;;;;;;25904998;23;20311;-70
2022/04/12 22:27:31;;;;;;;0.20;0.00;;;14.50;99.90;;;;;;25904819;23;20188;-77
2022/04/12 22:37:42;;;;;;;0.20;0.00;;;14.60;99.90;;;;;;25905651;23;20252;-73
2022/04/12 22:47:47;;;;;;;0.20;0.00;;;14.70;99.90;;;;;;25904610;23;20210;-75
2022/04/12 22:57:54;;;;;;;0.20;0.00;;;14.70;99.90;;;;;;25901211;22;20269;-75
2022/04/12 23:07:58;;;;;;;0.20;0.00;;;14.70;99.90;;;;;;25900425;23;20169;-77
2022/04/12 23:18:05;;;;;;;0.20;0.00;;;14.60;99.90;;;;;;25731462;22;20245;-79
2022/04/12 23:28:13;;;;;;;0.20;0.00;;;14.60;99.90;;;;;;25524925;23;20465;-77
2022/04/12 23:38:18;;;;;;;0.20;0.07;;;14.50;99.90;;;;;;25528541;23;20258;-79
2022/04/12 23:48:22;;;;;;;0.20;0.00;;;14.50;99.90;;;;;;25529323;23;20631;-76
2022/04/12 23:58:28;;;;;;;1.90;1.80;;;14.60;99.90;;;;;;25524183;23;20283;-78
